sensor_id;sensor_type;location;lat;lon;timestamp;P1;durP1;ratioP1;P2;durP2;ratioP2
44536;SDS011;30245;51.966;6.292;2023-07-31T00:02:16;0.85;;;0.10;;
44536;SDS011;30245;51.966;6.292;2023-07-31T00:04:42;0.88;;;0.10;;
44536;SDS011;30245;51.966;6.292;2023-07-31T00:07:07;0.40;;;0.10;;
44536;SDS011;30245;51.966;6.292;2023-07-31T00:09:33;0.30;;;0.10;;
44536;SDS011;30245;51.966;6.292;2023-07-31T00:11:59;0.30;;;0.10;;
44536;SDS011;30245;51.966;6.292;2023-07-31T00:14:25;0.43;;;0.10;;
44536;SDS011;30245;51.966;6.292;2023-07-31T00:16:50;0.30;;;0.10;;
44536;SDS011;30245;51.966;6.292;2023-07-31T00:19:16;0.40;;;0.10;;
44536;SDS011;30245;51.966;6.292;2023-07-31T00:21:41;0.30;;;0.10;;
44536;SDS011;30245;51.966;6.292;2023-07-31T00:24:07;0.50;;;0.10;;
44536;SDS011;30245;51.966;6.292;2023-07-31T00:26:33;0.40;;;0.10;;
44536;SDS011;30245;51.966;6.292;2023-07-31T00:28:58;0.30;;;0.10;;
44536;SDS011;30245;51.966;6.292;2023-07-31T00:31:24;0.35;;;0.10;;
44536;SDS011;30245;51.966;6.292;2023-07-31T00:33:49;0.20;;;0.10;;
44536;SDS011;30245;51.966;6.292;2023-07-31T00:36:15;0.25;;;0.10;;
44536;SDS011;30245;51.966;6.292;2023-07-31T00:38:42;0.10;;;0.05;;
44536;SDS011;30245;51.966;6.292;2023-07-31T00:41:08;0.20;;;0.00;;
44536;SDS011;30245;51.966;6.292;2023-07-31T00:43:34;0.20;;;0.10;;
44536;SDS011;30245;51.966;6.292;2023-07-31T00:45:59;0.20;;;0.10;;
44536;SDS011;30245;51.966;6.292;2023-07-31T00:48:25;0.50;;;0.10;;
44536;SDS011;30245;51.966;6.292;2023-07-31T00:50:51;0.20;;;0.10;;
44536;SDS011;30245;51.966;6.292;2023-07-31T00:53:17;0.30;;;0.10;;
44536;SDS011;30245;51.966;6.292;2023-07-31T00:55:43;0.30;;;0.03;;
44536;SDS011;30245;51.966;6.292;2023-07-31T00:58:09;0.10;;;0.00;;
44536;SDS011;30245;51.966;6.292;2023-07-31T01:00:35;0.00;;;0.00;;
44536;SDS011;30245;51.966;6.292;2023-07-31T01:03:00;0.25;;;0.10;;
44536;SDS011;30245;51.966;6.292;2023-07-31T01:05:32;0.85;;;0.10;;
44536;SDS011;30245;51.966;6.292;2023-07-31T01:11:06;0.95;;;0.35;;
44536;SDS011;30245;51.966;6.292;2023-07-31T01:13:39;9.05;;;1.38;;
44536;SDS011;30245;51.966;6.292;2023-07-31T01:16:05;2.45;;;0.68;;
44536;SDS011;30245;51.966;6.292;2023-07-31T01:18:30;13.57;;;1.75;;
44536;SDS011;30245;51.966;6.292;2023-07-31T01:20:59;5.07;;;2.00;;
44536;SDS011;30245;51.966;6.292;2023-07-31T01:26:19;10.43;;;4.15;;
44536;SDS011;30245;51.966;6.292;2023-07-31T01:31:26;13.82;;;5.13;;
44536;SDS011;30245;51.966;6.292;2023-07-31T01:33:54;9.35;;;5.53;;
44536;SDS011;30245;51.966;6.292;2023-07-31T01:36:24;16.38;;;5.90;;
44536;SDS011;30245;51.966;6.292;2023-07-31T01:38:50;14.23;;;6.22;;
44536;SDS011;30245;51.966;6.292;2023-07-31T01:41:17;10.40;;;5.28;;
44536;SDS011;30245;51.966;6.292;2023-07-31T01:43:43;16.63;;;6.25;;
44536;SDS011;30245;51.966;6.292;2023-07-31T01:46:09;14.48;;;7.20;;
44536;SDS011;30245;51.966;6.292;2023-07-31T01:48:35;14.35;;;6.55;;
44536;SDS011;30245;51.966;6.292;2023-07-31T01:51:02;13.95;;;6.00;;
44536;SDS011;30245;51.966;6.292;2023-07-31T01:53:28;11.68;;;5.65;;
44536;SDS011;30245;51.966;6.292;2023-07-31T01:55:55;24.27;;;6.55;;
44536;SDS011;30245;51.966;6.292;2023-07-31T01:58:20;14.70;;;6.10;;
44536;SDS011;30245;51.966;6.292;2023-07-31T02:00:46;15.35;;;5.78;;
44536;SDS011;30245;51.966;6.292;2023-07-31T02:03:11;14.70;;;5.40;;
44536;SDS011;30245;51.966;6.292;2023-07-31T02:05:43;11.18;;;5.25;;
44536;SDS011;30245;51.966;6.292;2023-07-31T02:08:09;18.05;;;6.85;;
44536;SDS011;30245;51.966;6.292;2023-07-31T02:10:35;14.90;;;5.63;;
44536;SDS011;30245;51.966;6.292;2023-07-31T02:13:01;15.40;;;5.85;;
44536;SDS011;30245;51.966;6.292;2023-07-31T02:15:28;14.82;;;4.63;;
44536;SDS011;30245;51.966;6.292;2023-07-31T02:17:57;15.45;;;6.65;;
44536;SDS011;30245;51.966;6.292;2023-07-31T02:20:23;14.35;;;5.45;;
44536;SDS011;30245;51.966;6.292;2023-07-31T02:22:49;13.55;;;5.20;;
44536;SDS011;30245;51.966;6.292;2023-07-31T02:25:14;11.75;;;5.93;;
44536;SDS011;30245;51.966;6.292;2023-07-31T02:27:40;14.10;;;5.78;;
44536;SDS011;30245;51.966;6.292;2023-07-31T02:30:06;14.02;;;5.80;;
44536;SDS011;30245;51.966;6.292;2023-07-31T02:32:32;10.57;;;5.30;;
44536;SDS011;30245;51.966;6.292;2023-07-31T02:34:57;11.30;;;5.00;;
44536;SDS011;30245;51.966;6.292;2023-07-31T02:37:23;14.85;;;5.00;;
44536;SDS011;30245;51.966;6.292;2023-07-31T02:39:49;16.70;;;6.05;;
44536;SDS011;30245;51.966;6.292;2023-07-31T02:42:14;10.48;;;3.95;;
44536;SDS011;30245;51.966;6.292;2023-07-31T02:44:40;14.25;;;4.53;;
44536;SDS011;30245;51.966;6.292;2023-07-31T02:47:06;10.30;;;3.80;;
44536;SDS011;30245;51.966;6.292;2023-07-31T02:49:31;10.20;;;4.88;;
44536;SDS011;30245;51.966;6.292;2023-07-31T02:51:57;8.63;;;3.55;;
44536;SDS011;30245;51.966;6.292;2023-07-31T02:54:22;11.50;;;5.03;;
44536;SDS011;30245;51.966;6.292;2023-07-31T02:56:48;12.30;;;3.60;;
44536;SDS011;30245;51.966;6.292;2023-07-31T02:59:14;9.50;;;3.13;;
44536;SDS011;30245;51.966;6.292;2023-07-31T03:01:39;8.55;;;3.55;;
44536;SDS011;30245;51.966;6.292;2023-07-31T03:04:05;11.27;;;3.92;;
44536;SDS011;30245;51.966;6.292;2023-07-31T03:06:32;10.48;;;4.05;;
44536;SDS011;30245;51.966;6.292;2023-07-31T03:08:58;12.93;;;3.95;;
44536;SDS011;30245;51.966;6.292;2023-07-31T03:11:23;16.23;;;3.72;;
44536;SDS011;30245;51.966;6.292;2023-07-31T03:13:49;9.48;;;3.45;;
44536;SDS011;30245;51.966;6.292;2023-07-31T03:16:14;13.45;;;4.13;;
44536;SDS011;30245;51.966;6.292;2023-07-31T03:18:40;9.90;;;4.88;;
44536;SDS011;30245;51.966;6.292;2023-07-31T03:21:06;10.05;;;3.97;;
44536;SDS011;30245;51.966;6.292;2023-07-31T03:23:31;10.07;;;3.75;;
44536;SDS011;30245;51.966;6.292;2023-07-31T03:25:57;6.60;;;3.78;;
44536;SDS011;30245;51.966;6.292;2023-07-31T03:28:28;10.13;;;4.30;;
44536;SDS011;30245;51.966;6.292;2023-07-31T03:30:53;8.70;;;3.00;;
44536;SDS011;30245;51.966;6.292;2023-07-31T03:33:19;9.32;;;3.63;;
44536;SDS011;30245;51.966;6.292;2023-07-31T03:35:45;12.88;;;4.07;;
44536;SDS011;30245;51.966;6.292;2023-07-31T03:38:11;9.77;;;4.65;;
44536;SDS011;30245;51.966;6.292;2023-07-31T03:40:36;8.30;;;3.83;;
44536;SDS011;30245;51.966;6.292;2023-07-31T03:43:02;13.88;;;3.70;;
44536;SDS011;30245;51.966;6.292;2023-07-31T03:45:27;11.77;;;2.80;;
44536;SDS011;30245;51.966;6.292;2023-07-31T03:47:53;8.52;;;4.50;;
44536;SDS011;30245;51.966;6.292;2023-07-31T03:50:19;13.70;;;5.40;;
44536;SDS011;30245;51.966;6.292;2023-07-31T03:52:45;7.70;;;3.20;;
44536;SDS011;30245;51.966;6.292;2023-07-31T03:55:11;9.70;;;3.58;;
44536;SDS011;30245;51.966;6.292;2023-07-31T03:57:37;11.18;;;4.18;;
44536;SDS011;30245;51.966;6.292;2023-07-31T04:00:02;8.27;;;3.28;;
44536;SDS011;30245;51.966;6.292;2023-07-31T04:02:28;5.95;;;3.15;;
44536;SDS011;30245;51.966;6.292;2023-07-31T04:04:54;5.53;;;2.95;;
44536;SDS011;30245;51.966;6.292;2023-07-31T04:07:20;10.60;;;3.97;;
44536;SDS011;30245;51.966;6.292;2023-07-31T04:09:45;8.35;;;2.30;;
44536;SDS011;30245;51.966;6.292;2023-07-31T04:12:11;10.65;;;3.05;;
44536;SDS011;30245;51.966;6.292;2023-07-31T04:14:36;10.10;;;2.67;;
44536;SDS011;30245;51.966;6.292;2023-07-31T04:17:02;9.43;;;3.75;;
44536;SDS011;30245;51.966;6.292;2023-07-31T04:19:28;10.25;;;2.85;;
44536;SDS011;30245;51.966;6.292;2023-07-31T04:21:53;12.63;;;2.75;;
44536;SDS011;30245;51.966;6.292;2023-07-31T04:24:19;16.25;;;3.25;;
44536;SDS011;30245;51.966;6.292;2023-07-31T04:26:49;8.75;;;2.85;;
44536;SDS011;30245;51.966;6.292;2023-07-31T04:29:15;9.15;;;2.47;;
44536;SDS011;30245;51.966;6.292;2023-07-31T04:31:41;8.80;;;3.03;;
44536;SDS011;30245;51.966;6.292;2023-07-31T04:34:07;7.18;;;2.78;;
44536;SDS011;30245;51.966;6.292;2023-07-31T04:36:33;9.43;;;2.35;;
44536;SDS011;30245;51.966;6.292;2023-07-31T04:38:59;14.80;;;3.20;;
44536;SDS011;30245;51.966;6.292;2023-07-31T04:41:24;7.82;;;2.53;;
44536;SDS011;30245;51.966;6.292;2023-07-31T04:43:50;7.68;;;2.95;;
44536;SDS011;30245;51.966;6.292;2023-07-31T04:46:16;9.38;;;2.40;;
44536;SDS011;30245;51.966;6.292;2023-07-31T04:48:41;14.52;;;4.40;;
44536;SDS011;30245;51.966;6.292;2023-07-31T04:51:07;9.35;;;3.15;;
44536;SDS011;30245;51.966;6.292;2023-07-31T04:53:34;9.23;;;2.90;;
44536;SDS011;30245;51.966;6.292;2023-07-31T04:56:00;10.23;;;3.22;;
44536;SDS011;30245;51.966;6.292;2023-07-31T04:58:25;10.23;;;3.40;;
44536;SDS011;30245;51.966;6.292;2023-07-31T05:00:51;6.90;;;2.25;;
44536;SDS011;30245;51.966;6.292;2023-07-31T05:03:17;9.73;;;2.97;;
44536;SDS011;30245;51.966;6.292;2023-07-31T05:05:42;7.50;;;2.00;;
44536;SDS011;30245;51.966;6.292;2023-07-31T05:08:08;6.18;;;2.08;;
44536;SDS011;30245;51.966;6.292;2023-07-31T05:10:34;5.43;;;2.05;;
44536;SDS011;30245;51.966;6.292;2023-07-31T05:12:59;9.55;;;3.42;;
44536;SDS011;30245;51.966;6.292;2023-07-31T05:15:25;4.82;;;2.45;;
44536;SDS011;30245;51.966;6.292;2023-07-31T05:17:51;7.30;;;2.47;;
44536;SDS011;30245;51.966;6.292;2023-07-31T05:20:16;12.55;;;2.83;;
44536;SDS011;30245;51.966;6.292;2023-07-31T05:22:42;10.73;;;3.17;;
44536;SDS011;30245;51.966;6.292;2023-07-31T05:25:07;7.90;;;2.08;;
44536;SDS011;30245;51.966;6.292;2023-07-31T05:27:33;7.63;;;2.75;;
44536;SDS011;30245;51.966;6.292;2023-07-31T05:29:59;8.52;;;2.28;;
44536;SDS011;30245;51.966;6.292;2023-07-31T05:32:25;13.02;;;2.95;;
44536;SDS011;30245;51.966;6.292;2023-07-31T05:34:51;8.20;;;3.20;;
44536;SDS011;30245;51.966;6.292;2023-07-31T05:37:17;6.45;;;2.38;;
44536;SDS011;30245;51.966;6.292;2023-07-31T05:39:43;9.52;;;3.10;;
44536;SDS011;30245;51.966;6.292;2023-07-31T05:42:08;9.57;;;2.90;;
44536;SDS011;30245;51.966;6.292;2023-07-31T05:44:34;6.25;;;2.17;;
44536;SDS011;30245;51.966;6.292;2023-07-31T05:46:59;7.22;;;1.70;;
44536;SDS011;30245;51.966;6.292;2023-07-31T05:49:25;6.93;;;1.58;;
44536;SDS011;30245;51.966;6.292;2023-07-31T05:51:51;8.77;;;1.80;;
44536;SDS011;30245;51.966;6.292;2023-07-31T05:54:16;6.00;;;1.60;;
44536;SDS011;30245;51.966;6.292;2023-07-31T05:56:42;11.85;;;1.73;;
44536;SDS011;30245;51.966;6.292;2023-07-31T05:59:08;5.63;;;1.75;;
44536;SDS011;30245;51.966;6.292;2023-07-31T06:01:35;7.70;;;2.17;;
44536;SDS011;30245;51.966;6.292;2023-07-31T06:04:01;11.75;;;2.30;;
44536;SDS011;30245;51.966;6.292;2023-07-31T06:06:28;5.43;;;1.77;;
44536;SDS011;30245;51.966;6.292;2023-07-31T06:08:54;5.32;;;1.90;;
44536;SDS011;30245;51.966;6.292;2023-07-31T06:11:22;5.60;;;1.00;;
44536;SDS011;30245;51.966;6.292;2023-07-31T06:13:48;10.27;;;2.20;;
44536;SDS011;30245;51.966;6.292;2023-07-31T06:16:15;7.90;;;1.38;;
44536;SDS011;30245;51.966;6.292;2023-07-31T06:18:41;6.85;;;2.10;;
44536;SDS011;30245;51.966;6.292;2023-07-31T06:21:09;6.32;;;2.20;;
44536;SDS011;30245;51.966;6.292;2023-07-31T06:23:35;7.70;;;2.17;;
44536;SDS011;30245;51.966;6.292;2023-07-31T06:26:01;3.95;;;0.98;;
44536;SDS011;30245;51.966;6.292;2023-07-31T06:28:27;5.05;;;1.42;;
44536;SDS011;30245;51.966;6.292;2023-07-31T06:30:57;7.93;;;1.92;;
44536;SDS011;30245;51.966;6.292;2023-07-31T06:33:23;5.10;;;1.60;;
44536;SDS011;30245;51.966;6.292;2023-07-31T06:35:49;6.55;;;2.55;;
44536;SDS011;30245;51.966;6.292;2023-07-31T06:38:15;5.88;;;1.77;;
44536;SDS011;30245;51.966;6.292;2023-07-31T06:40:43;3.33;;;1.45;;
44536;SDS011;30245;51.966;6.292;2023-07-31T06:43:09;4.03;;;1.25;;
44536;SDS011;30245;51.966;6.292;2023-07-31T06:45:35;2.78;;;1.25;;
44536;SDS011;30245;51.966;6.292;2023-07-31T06:48:01;3.53;;;1.20;;
44536;SDS011;30245;51.966;6.292;2023-07-31T06:50:28;2.80;;;1.30;;
44536;SDS011;30245;51.966;6.292;2023-07-31T06:52:55;5.45;;;1.10;;
44536;SDS011;30245;51.966;6.292;2023-07-31T06:55:21;3.90;;;1.27;;
44536;SDS011;30245;51.966;6.292;2023-07-31T06:57:47;5.93;;;1.02;;
44536;SDS011;30245;51.966;6.292;2023-07-31T07:00:18;3.10;;;0.88;;
44536;SDS011;30245;51.966;6.292;2023-07-31T07:02:44;4.43;;;0.80;;
44536;SDS011;30245;51.966;6.292;2023-07-31T07:05:12;3.00;;;0.60;;
44536;SDS011;30245;51.966;6.292;2023-07-31T07:07:38;4.20;;;0.77;;
44536;SDS011;30245;51.966;6.292;2023-07-31T07:10:04;3.50;;;0.82;;
44536;SDS011;30245;51.966;6.292;2023-07-31T07:12:31;1.70;;;0.75;;
44536;SDS011;30245;51.966;6.292;2023-07-31T07:14:57;1.75;;;0.75;;
44536;SDS011;30245;51.966;6.292;2023-07-31T07:17:24;1.83;;;0.73;;
44536;SDS011;30245;51.966;6.292;2023-07-31T07:19:56;1.58;;;0.80;;
44536;SDS011;30245;51.966;6.292;2023-07-31T07:22:22;2.03;;;0.85;;
44536;SDS011;30245;51.966;6.292;2023-07-31T07:24:48;1.52;;;0.30;;
44536;SDS011;30245;51.966;6.292;2023-07-31T07:27:13;0.80;;;0.25;;
44536;SDS011;30245;51.966;6.292;2023-07-31T07:29:39;1.48;;;0.30;;
44536;SDS011;30245;51.966;6.292;2023-07-31T07:32:05;1.98;;;0.40;;
44536;SDS011;30245;51.966;6.292;2023-07-31T07:34:31;1.40;;;0.60;;
44536;SDS011;30245;51.966;6.292;2023-07-31T07:36:57;0.90;;;0.40;;
44536;SDS011;30245;51.966;6.292;2023-07-31T07:39:22;0.60;;;0.30;;
44536;SDS011;30245;51.966;6.292;2023-07-31T07:41:48;0.50;;;0.20;;
44536;SDS011;30245;51.966;6.292;2023-07-31T07:44:14;0.57;;;0.20;;
44536;SDS011;30245;51.966;6.292;2023-07-31T07:46:41;0.32;;;0.20;;
44536;SDS011;30245;51.966;6.292;2023-07-31T07:49:06;0.30;;;0.10;;
44536;SDS011;30245;51.966;6.292;2023-07-31T07:51:32;0.40;;;0.20;;
44536;SDS011;30245;51.966;6.292;2023-07-31T07:53:58;0.52;;;0.20;;
44536;SDS011;30245;51.966;6.292;2023-07-31T07:58:50;0.40;;;0.20;;
44536;SDS011;30245;51.966;6.292;2023-07-31T08:01:16;0.75;;;0.20;;
44536;SDS011;30245;51.966;6.292;2023-07-31T08:03:42;1.10;;;0.28;;
44536;SDS011;30245;51.966;6.292;2023-07-31T08:06:08;1.83;;;0.30;;
44536;SDS011;30245;51.966;6.292;2023-07-31T08:08:34;1.02;;;0.35;;
44536;SDS011;30245;51.966;6.292;2023-07-31T08:11:00;0.22;;;0.10;;
44536;SDS011;30245;51.966;6.292;2023-07-31T08:13:26;1.23;;;0.30;;
44536;SDS011;30245;51.966;6.292;2023-07-31T08:15:52;1.00;;;0.20;;
44536;SDS011;30245;51.966;6.292;2023-07-31T08:18:17;0.63;;;0.20;;
44536;SDS011;30245;51.966;6.292;2023-07-31T08:20:44;0.70;;;0.20;;
44536;SDS011;30245;51.966;6.292;2023-07-31T08:23:09;0.30;;;0.10;;
44536;SDS011;30245;51.966;6.292;2023-07-31T08:25:35;0.60;;;0.20;;
44536;SDS011;30245;51.966;6.292;2023-07-31T08:28:02;0.40;;;0.20;;
44536;SDS011;30245;51.966;6.292;2023-07-31T08:30:28;0.90;;;0.20;;
44536;SDS011;30245;51.966;6.292;2023-07-31T08:32:54;0.40;;;0.20;;
44536;SDS011;30245;51.966;6.292;2023-07-31T08:35:19;1.13;;;0.20;;
44536;SDS011;30245;51.966;6.292;2023-07-31T08:37:45;0.38;;;0.10;;
44536;SDS011;30245;51.966;6.292;2023-07-31T08:40:11;0.75;;;0.20;;
44536;SDS011;30245;51.966;6.292;2023-07-31T08:42:49;1.45;;;0.20;;
44536;SDS011;30245;51.966;6.292;2023-07-31T08:45:18;0.45;;;0.20;;
44536;SDS011;30245;51.966;6.292;2023-07-31T08:47:44;0.63;;;0.20;;
44536;SDS011;30245;51.966;6.292;2023-07-31T08:52:38;0.63;;;0.22;;
44536;SDS011;30245;51.966;6.292;2023-07-31T08:55:05;2.47;;;0.30;;
44536;SDS011;30245;51.966;6.292;2023-07-31T08:57:31;1.65;;;0.40;;
44536;SDS011;30245;51.966;6.292;2023-07-31T08:59:59;0.63;;;0.25;;
44536;SDS011;30245;51.966;6.292;2023-07-31T09:02:25;0.93;;;0.30;;
44536;SDS011;30245;51.966;6.292;2023-07-31T09:04:59;0.57;;;0.28;;
44536;SDS011;30245;51.966;6.292;2023-07-31T09:07:26;1.52;;;0.40;;
44536;SDS011;30245;51.966;6.292;2023-07-31T09:09:52;0.93;;;0.40;;
44536;SDS011;30245;51.966;6.292;2023-07-31T09:12:17;1.17;;;0.35;;
44536;SDS011;30245;51.966;6.292;2023-07-31T09:14:44;0.47;;;0.30;;
44536;SDS011;30245;51.966;6.292;2023-07-31T09:17:11;0.70;;;0.30;;
44536;SDS011;30245;51.966;6.292;2023-07-31T09:19:36;0.90;;;0.40;;
44536;SDS011;30245;51.966;6.292;2023-07-31T09:22:03;0.43;;;0.20;;
44536;SDS011;30245;51.966;6.292;2023-07-31T09:24:31;0.60;;;0.40;;
44536;SDS011;30245;51.966;6.292;2023-07-31T09:26:58;0.47;;;0.35;;
44536;SDS011;30245;51.966;6.292;2023-07-31T09:29:25;2.13;;;0.40;;
44536;SDS011;30245;51.966;6.292;2023-07-31T09:31:51;0.50;;;0.30;;
44536;SDS011;30245;51.966;6.292;2023-07-31T09:34:17;1.10;;;0.40;;
44536;SDS011;30245;51.966;6.292;2023-07-31T09:36:44;0.65;;;0.25;;
44536;SDS011;30245;51.966;6.292;2023-07-31T09:39:11;1.58;;;0.30;;
44536;SDS011;30245;51.966;6.292;2023-07-31T09:41:38;0.88;;;0.30;;
44536;SDS011;30245;51.966;6.292;2023-07-31T09:44:04;2.42;;;0.52;;
44536;SDS011;30245;51.966;6.292;2023-07-31T09:46:30;0.47;;;0.20;;
44536;SDS011;30245;51.966;6.292;2023-07-31T09:49:06;0.55;;;0.30;;
44536;SDS011;30245;51.966;6.292;2023-07-31T09:51:37;1.17;;;0.32;;
44536;SDS011;30245;51.966;6.292;2023-07-31T09:54:10;1.08;;;0.30;;
44536;SDS011;30245;51.966;6.292;2023-07-31T09:56:44;0.55;;;0.30;;
44536;SDS011;30245;51.966;6.292;2023-07-31T09:59:14;0.80;;;0.47;;
44536;SDS011;30245;51.966;6.292;2023-07-31T10:01:41;0.63;;;0.40;;
44536;SDS011;30245;51.966;6.292;2023-07-31T10:04:08;2.25;;;0.50;;
44536;SDS011;30245;51.966;6.292;2023-07-31T10:06:35;0.95;;;0.52;;
44536;SDS011;30245;51.966;6.292;2023-07-31T10:09:03;2.70;;;0.50;;
44536;SDS011;30245;51.966;6.292;2023-07-31T10:11:31;0.90;;;0.60;;
44536;SDS011;30245;51.966;6.292;2023-07-31T10:14:03;1.45;;;0.95;;
44536;SDS011;30245;51.966;6.292;2023-07-31T10:16:31;1.00;;;0.50;;
44536;SDS011;30245;51.966;6.292;2023-07-31T10:18:57;1.52;;;0.90;;
44536;SDS011;30245;51.966;6.292;2023-07-31T10:21:24;1.63;;;1.05;;
44536;SDS011;30245;51.966;6.292;2023-07-31T10:23:50;1.65;;;1.20;;
44536;SDS011;30245;51.966;6.292;2023-07-31T10:26:17;2.00;;;1.30;;
44536;SDS011;30245;51.966;6.292;2023-07-31T10:28:45;1.65;;;1.10;;
44536;SDS011;30245;51.966;6.292;2023-07-31T10:33:39;2.35;;;1.27;;
44536;SDS011;30245;51.966;6.292;2023-07-31T10:36:17;4.30;;;1.70;;
44536;SDS011;30245;51.966;6.292;2023-07-31T10:38:43;3.95;;;1.35;;
44536;SDS011;30245;51.966;6.292;2023-07-31T10:41:10;3.70;;;1.23;;
44536;SDS011;30245;51.966;6.292;2023-07-31T10:43:37;2.38;;;1.45;;
44536;SDS011;30245;51.966;6.292;2023-07-31T10:46:06;4.53;;;1.80;;
44536;SDS011;30245;51.966;6.292;2023-07-31T10:48:34;2.63;;;1.23;;
44536;SDS011;30245;51.966;6.292;2023-07-31T10:51:02;5.28;;;1.83;;
44536;SDS011;30245;51.966;6.292;2023-07-31T10:53:38;3.33;;;1.35;;
44536;SDS011;30245;51.966;6.292;2023-07-31T10:56:06;2.67;;;1.85;;
44536;SDS011;30245;51.966;6.292;2023-07-31T10:58:40;3.47;;;1.98;;
44536;SDS011;30245;51.966;6.292;2023-07-31T11:01:09;4.82;;;1.88;;
44536;SDS011;30245;51.966;6.292;2023-07-31T11:03:47;3.35;;;2.00;;
44536;SDS011;30245;51.966;6.292;2023-07-31T11:06:17;4.20;;;2.40;;
44536;SDS011;30245;51.966;6.292;2023-07-31T11:08:43;2.40;;;1.92;;
44536;SDS011;30245;51.966;6.292;2023-07-31T11:11:11;8.80;;;2.28;;
44536;SDS011;30245;51.966;6.292;2023-07-31T11:16:23;8.15;;;2.38;;
44536;SDS011;30245;51.966;6.292;2023-07-31T11:18:49;2.72;;;1.38;;
44536;SDS011;30245;51.966;6.292;2023-07-31T11:21:23;3.80;;;1.80;;
44536;SDS011;30245;51.966;6.292;2023-07-31T11:23:53;2.28;;;1.40;;
44536;SDS011;30245;51.966;6.292;2023-07-31T11:26:22;4.60;;;2.35;;
44536;SDS011;30245;51.966;6.292;2023-07-31T11:28:49;4.55;;;1.55;;
44536;SDS011;30245;51.966;6.292;2023-07-31T11:31:15;3.45;;;1.52;;
44536;SDS011;30245;51.966;6.292;2023-07-31T11:33:42;5.55;;;1.75;;
44536;SDS011;30245;51.966;6.292;2023-07-31T11:36:17;3.88;;;1.98;;
44536;SDS011;30245;51.966;6.292;2023-07-31T11:38:44;2.45;;;1.27;;
44536;SDS011;30245;51.966;6.292;2023-07-31T11:41:10;3.42;;;1.73;;
44536;SDS011;30245;51.966;6.292;2023-07-31T11:43:39;1.42;;;1.02;;
44536;SDS011;30245;51.966;6.292;2023-07-31T11:46:04;2.55;;;1.15;;
44536;SDS011;30245;51.966;6.292;2023-07-31T11:48:35;3.50;;;1.50;;
44536;SDS011;30245;51.966;6.292;2023-07-31T11:51:05;2.65;;;1.92;;
44536;SDS011;30245;51.966;6.292;2023-07-31T11:56:05;4.00;;;1.55;;
44536;SDS011;30245;51.966;6.292;2023-07-31T11:58:34;2.00;;;1.48;;
44536;SDS011;30245;51.966;6.292;2023-07-31T12:01:01;4.90;;;2.07;;
44536;SDS011;30245;51.966;6.292;2023-07-31T12:03:27;4.40;;;1.88;;
44536;SDS011;30245;51.966;6.292;2023-07-31T12:05:53;2.33;;;0.88;;
44536;SDS011;30245;51.966;6.292;2023-07-31T12:08:21;2.65;;;1.55;;
44536;SDS011;30245;51.966;6.292;2023-07-31T12:10:49;2.30;;;1.52;;
44536;SDS011;30245;51.966;6.292;2023-07-31T12:13:20;3.67;;;1.33;;
44536;SDS011;30245;51.966;6.292;2023-07-31T12:15:47;3.42;;;1.15;;
44536;SDS011;30245;51.966;6.292;2023-07-31T12:18:14;3.35;;;1.30;;
44536;SDS011;30245;51.966;6.292;2023-07-31T12:20:44;4.18;;;1.23;;
44536;SDS011;30245;51.966;6.292;2023-07-31T12:23:18;3.38;;;1.60;;
44536;SDS011;30245;51.966;6.292;2023-07-31T12:26:08;3.03;;;1.88;;
44536;SDS011;30245;51.966;6.292;2023-07-31T12:28:48;4.10;;;1.38;;
44536;SDS011;30245;51.966;6.292;2023-07-31T12:31:16;4.32;;;1.77;;
44536;SDS011;30245;51.966;6.292;2023-07-31T12:33:44;2.97;;;1.45;;
44536;SDS011;30245;51.966;6.292;2023-07-31T12:36:15;1.90;;;0.90;;
44536;SDS011;30245;51.966;6.292;2023-07-31T12:38:45;2.75;;;0.80;;
44536;SDS011;30245;51.966;6.292;2023-07-31T12:41:11;2.92;;;1.23;;
44536;SDS011;30245;51.966;6.292;2023-07-31T12:43:38;4.32;;;1.42;;
44536;SDS011;30245;51.966;6.292;2023-07-31T12:46:05;1.67;;;0.95;;
44536;SDS011;30245;51.966;6.292;2023-07-31T12:48:32;4.95;;;0.90;;
44536;SDS011;30245;51.966;6.292;2023-07-31T12:50:58;5.07;;;1.50;;
44536;SDS011;30245;51.966;6.292;2023-07-31T12:53:24;3.92;;;1.48;;
44536;SDS011;30245;51.966;6.292;2023-07-31T12:55:49;2.40;;;1.05;;
44536;SDS011;30245;51.966;6.292;2023-07-31T12:58:15;1.85;;;1.10;;
44536;SDS011;30245;51.966;6.292;2023-07-31T13:00:41;3.17;;;0.70;;
44536;SDS011;30245;51.966;6.292;2023-07-31T13:03:07;1.70;;;1.17;;
44536;SDS011;30245;51.966;6.292;2023-07-31T13:05:33;2.17;;;1.20;;
44536;SDS011;30245;51.966;6.292;2023-07-31T13:07:59;1.80;;;1.00;;
44536;SDS011;30245;51.966;6.292;2023-07-31T13:10:24;3.83;;;1.15;;
44536;SDS011;30245;51.966;6.292;2023-07-31T13:12:51;1.95;;;0.82;;
44536;SDS011;30245;51.966;6.292;2023-07-31T13:15:17;3.58;;;1.65;;
44536;SDS011;30245;51.966;6.292;2023-07-31T13:17:43;1.90;;;0.80;;
44536;SDS011;30245;51.966;6.292;2023-07-31T13:20:09;2.17;;;1.27;;
44536;SDS011;30245;51.966;6.292;2023-07-31T13:22:34;2.47;;;0.95;;
44536;SDS011;30245;51.966;6.292;2023-07-31T13:25:00;2.78;;;0.75;;
44536;SDS011;30245;51.966;6.292;2023-07-31T13:27:26;3.22;;;0.63;;
44536;SDS011;30245;51.966;6.292;2023-07-31T13:29:51;2.13;;;0.90;;
44536;SDS011;30245;51.966;6.292;2023-07-31T13:32:17;1.60;;;0.90;;
44536;SDS011;30245;51.966;6.292;2023-07-31T13:34:44;1.75;;;0.95;;
44536;SDS011;30245;51.966;6.292;2023-07-31T13:37:10;1.58;;;0.80;;
44536;SDS011;30245;51.966;6.292;2023-07-31T13:39:36;1.60;;;0.80;;
44536;SDS011;30245;51.966;6.292;2023-07-31T13:42:02;1.23;;;0.52;;
44536;SDS011;30245;51.966;6.292;2023-07-31T13:44:28;1.05;;;0.65;;
44536;SDS011;30245;51.966;6.292;2023-07-31T13:46:54;2.90;;;0.70;;
44536;SDS011;30245;51.966;6.292;2023-07-31T13:49:19;1.63;;;1.02;;
44536;SDS011;30245;51.966;6.292;2023-07-31T13:51:45;1.25;;;0.60;;
44536;SDS011;30245;51.966;6.292;2023-07-31T13:54:11;1.67;;;0.82;;
44536;SDS011;30245;51.966;6.292;2023-07-31T13:56:37;2.00;;;0.73;;
44536;SDS011;30245;51.966;6.292;2023-07-31T13:59:03;1.48;;;0.50;;
44536;SDS011;30245;51.966;6.292;2023-07-31T14:01:29;4.50;;;0.90;;
44536;SDS011;30245;51.966;6.292;2023-07-31T14:03:54;1.75;;;0.60;;
44536;SDS011;30245;51.966;6.292;2023-07-31T14:06:20;2.28;;;0.73;;
44536;SDS011;30245;51.966;6.292;2023-07-31T14:08:46;2.35;;;0.60;;
44536;SDS011;30245;51.966;6.292;2023-07-31T14:11:11;1.00;;;0.85;;
44536;SDS011;30245;51.966;6.292;2023-07-31T14:13:37;3.55;;;0.60;;
44536;SDS011;30245;51.966;6.292;2023-07-31T14:16:02;2.33;;;0.50;;
44536;SDS011;30245;51.966;6.292;2023-07-31T14:18:28;1.58;;;0.68;;
44536;SDS011;30245;51.966;6.292;2023-07-31T14:20:54;6.50;;;1.52;;
44536;SDS011;30245;51.966;6.292;2023-07-31T14:23:20;2.10;;;0.93;;
44536;SDS011;30245;51.966;6.292;2023-07-31T14:25:46;2.60;;;1.00;;
44536;SDS011;30245;51.966;6.292;2023-07-31T14:28:12;2.00;;;1.00;;
44536;SDS011;30245;51.966;6.292;2023-07-31T14:30:37;4.50;;;1.35;;
44536;SDS011;30245;51.966;6.292;2023-07-31T14:33:03;3.92;;;1.00;;
44536;SDS011;30245;51.966;6.292;2023-07-31T14:35:29;2.60;;;1.38;;
44536;SDS011;30245;51.966;6.292;2023-07-31T14:37:54;2.97;;;1.00;;
44536;SDS011;30245;51.966;6.292;2023-07-31T14:40:20;4.60;;;1.75;;
44536;SDS011;30245;51.966;6.292;2023-07-31T14:42:45;3.50;;;2.05;;
44536;SDS011;30245;51.966;6.292;2023-07-31T14:45:11;3.00;;;1.60;;
44536;SDS011;30245;51.966;6.292;2023-07-31T14:47:37;4.00;;;2.22;;
44536;SDS011;30245;51.966;6.292;2023-07-31T14:50:02;3.03;;;1.23;;
44536;SDS011;30245;51.966;6.292;2023-07-31T14:52:29;3.80;;;1.77;;
44536;SDS011;30245;51.966;6.292;2023-07-31T14:54:54;2.92;;;1.30;;
44536;SDS011;30245;51.966;6.292;2023-07-31T14:57:20;2.88;;;1.92;;
44536;SDS011;30245;51.966;6.292;2023-07-31T14:59:45;6.32;;;1.67;;
44536;SDS011;30245;51.966;6.292;2023-07-31T15:02:12;3.65;;;1.08;;
44536;SDS011;30245;51.966;6.292;2023-07-31T15:04:38;1.83;;;0.95;;